New Windsor, Illinois
Current Conditions -  °F | °C
As of 7:52 AM on Tuesday 27 Jan 2015 (Local Time) from KMLI Reporting Station
Overcast Overcast  
Wind Chill: 21°   Ceiling: 1300
Heat Index: 30°   Visibility: 7mi
Dew Point: 24°   Wind: 10mph
Humidity: 79%   Direction: 10°N
Pressure: 30.11"   Gusts: 20mph
Location:  41.2°N, 90.47°W
Report Text: KMLI 271352Z 01009G17KT 7SM OVC013 M01/M04 A3011 RMK AO2 SLP202 T10111044
Loading
Personal Weather Stations






























Interactive Weather Map New forecast layout! Learn more

10-Day Weather Forecast

Advertisements
Track Severe Weather on mobile